»·PEaware :: AAL360 KDEN-KASE

AAL360 :: KDEN-KASE

FLIGHT INFORMATION

Flight Status: Arrived
Operator:
American Airlines
More flights by this operator :: More flights under this callsign
Pilot: Sergei F. (8485)
Aircraft: BOEING 737-300
(B733)
More flights by this aircraft type
Origin: KDEN Denver Intl
United States
Destination: KASE Aspen-Pitkin Co/Sardy
United States
More flights between these airports :: More routes between these airports
Route: CONNR4 DBL
File this flight plan on PilotEdge
Remarks:
Altitude:
(Current/Filed)
16,000ft
Speed:
(Current/Filed)
300kts
Departed: 18-Nov-17 06:29 PM
Arrived: 18-Nov-17 06:59 PM
Distance/Time
Traveled:
109nm/0:30
Distance/Time
To Go:
Arrived

Flight Plot

Page will automatically refresh every two minutes.

Flight plan parsing failed; only flown route is shown


Map Options




Map Legend


Flown Route
Filed Route
Departure Airport
Arrival Airport
Navaid (VOR, NDB)
Fix

Horizontal Profiles

Position Reports

Time Latitude Longitude Heading Altitude Ground
Speed
18-Nov-17 17:57 39.853275 -104.675243 5 5382ft 0kts
18-Nov-17 17:58 39.853275 -104.675243 5 5382ft 0kts
18-Nov-17 17:59 39.853275 -104.675243 5 5382ft 0kts
18-Nov-17 18:00 39.853275 -104.675243 5 5382ft 0kts
18-Nov-17 18:01 39.853275 -104.675243 5 5382ft 0kts
18-Nov-17 18:02 39.853275 -104.675243 5 5382ft 0kts
18-Nov-17 18:03 39.853275 -104.675243 5 5382ft 0kts
18-Nov-17 18:04 39.853275 -104.675243 5 5382ft 0kts
18-Nov-17 18:05 39.853275 -104.675243 5 5382ft 0kts
18-Nov-17 18:06 39.853275 -104.675243 5 5382ft 0kts
18-Nov-17 18:07 39.853275 -104.675243 5 5382ft 0kts
18-Nov-17 18:08 39.853275 -104.675243 5 5382ft 0kts
18-Nov-17 18:09 39.853275 -104.675243 5 5382ft 0kts
18-Nov-17 18:10 39.853275 -104.675243 5 5382ft 0kts
18-Nov-17 18:11 39.853275 -104.675243 5 5382ft 0kts
18-Nov-17 18:12 39.853275 -104.675243 5 5382ft 0kts
18-Nov-17 18:13 39.853275 -104.675243 5 5382ft 0kts
18-Nov-17 18:14 39.853275 -104.675243 5 5382ft 0kts
18-Nov-17 18:15 39.853275 -104.675243 5 5382ft 0kts
18-Nov-17 18:16 39.852907 -104.675291 5 5381ft 0kts
18-Nov-17 18:17 39.852780 -104.675307 88 5381ft 0kts
18-Nov-17 18:18 39.852780 -104.675307 88 5381ft 0kts
18-Nov-17 18:19 39.852780 -104.675307 88 5381ft 0kts
18-Nov-17 18:20 39.852780 -104.675307 88 5381ft 0kts
18-Nov-17 18:21 39.852780 -104.675307 88 5381ft 0kts
18-Nov-17 18:22 39.852780 -104.675307 88 5381ft 0kts
18-Nov-17 18:23 39.852779 -104.674744 88 5384ft 5kts
18-Nov-17 18:24 39.852778 -104.673708 90 5390ft 3kts
18-Nov-17 18:25 39.852754 -104.671375 90 5399ft 8kts
18-Nov-17 18:26 39.852722 -104.667914 90 5405ft 8kts
18-Nov-17 18:27 39.852894 -104.664720 84 5413ft 7kts
18-Nov-17 18:28 39.852904 -104.664534 86 5413ft 0kts
18-Nov-17 18:29 39.852919 -104.663802 89 5415ft 6kts
18-Nov-17 18:30 39.854299 -104.662353 359 5418ft 8kts
18-Nov-17 18:31 39.856766 -104.662317 0 5425ft 11kts
18-Nov-17 18:32 39.859938 -104.662281 0 5422ft 11kts
18-Nov-17 18:33 39.860604 -104.660144 174 5413ft 11kts
18-Nov-17 18:34 39.837167 -104.660751 183 6067ft 174kts
18-Nov-17 18:35 39.789576 -104.678035 224 8940ft 207kts
18-Nov-17 18:36 39.756560 -104.740162 273 11587ft 233kts
18-Nov-17 18:37 39.756798 -104.827330 274 14245ft 276kts
18-Nov-17 18:38 39.761203 -104.934554 282 15952ft 336kts
18-Nov-17 18:39 39.776369 -105.046026 280 15992ft 328kts
18-Nov-17 18:40 39.790775 -105.160298 279 15998ft 330kts
18-Nov-17 18:41 39.781590 -105.275568 255 15992ft 331kts
18-Nov-17 18:42 39.757097 -105.389195 256 15992ft 329kts
18-Nov-17 18:43 39.732678 -105.502925 256 16017ft 329kts
18-Nov-17 18:44 39.708713 -105.617648 257 16021ft 329kts
18-Nov-17 18:45 39.691803 -105.731068 263 15900ft 327kts
18-Nov-17 18:46 39.679025 -105.848234 263 15973ft 327kts
18-Nov-17 18:47 39.666214 -105.964098 263 15978ft 327kts
18-Nov-17 18:48 39.653165 -106.080970 263 15974ft 327kts
18-Nov-17 18:49 39.640152 -106.196442 263 15980ft 326kts
18-Nov-17 18:50 39.626718 -106.312668 258 15980ft 317kts
18-Nov-17 18:51 39.596474 -106.407814 250 16022ft 266kts
18-Nov-17 18:52 39.570472 -106.488700 250 16016ft 238kts
18-Nov-17 18:53 39.545907 -106.565330 251 16047ft 219kts
18-Nov-17 18:54 39.522664 -106.637796 251 15989ft 221kts
18-Nov-17 18:55 39.499918 -106.708791 249 14375ft 229kts
18-Nov-17 18:56 39.477842 -106.777277 249 14071ft 193kts
18-Nov-17 18:57 39.457935 -106.839218 250 14020ft 170kts
18-Nov-17 18:58 39.440081 -106.896130 250 14015ft 170kts
18-Nov-17 18:59 39.403481 -106.934385 211 13207ft 174kts
18-Nov-17 19:00 39.357521 -106.935734 161 12422ft 175kts
18-Nov-17 19:01 39.314196 -106.912364 163 11181ft 159kts
18-Nov-17 19:02 39.275565 -106.893867 164 9146ft 146kts
18-Nov-17 19:03 39.240701 -106.876994 164 7875ft 128kts
18-Nov-17 19:04 39.220713 -106.867464 150 7761ft 6kts
18-Nov-17 19:05 39.220581 -106.865748 70 7767ft 11kts
18-Nov-17 19:06 39.220717 -106.865267 70 7767ft 0kts
18-Nov-17 19:07 39.220717 -106.865267 70 7767ft 0kts
18-Nov-17 19:08 39.220717 -106.865267 70 7767ft 0kts
18-Nov-17 19:09 39.220717 -106.865267 70 7767ft 0kts

Navigation Log

Ident Type
Flight plan parsing failed, navigation log unavailable